CheckWX is a tool to help pilots better visualize weather data.  It is not intended as a substitute for an official pre-flight weather briefing.

18:39:06 UTC

CYCB METAR
Cambridge Bay Airport
Cambridge Bay, Canada
Current

39 mins ago

CYCB 261800Z 34015KT 3SM -SN DRSN FEW012 BKN022 BKN240 M16/M19 A2978 RMK SC2SC4CI1 CI TR /S01/ SLP090
Observed
Mar-26 @ 18:00 UTC
Wind
  • 340° at 15 KTS
Visibility
3 SM
Flight Rules
MVFR
Conditions
Light Snow, Low drifting Snow
Cloud Levels
  • Few at 1,200' AGL
  • Broken at 2,200' AGL
  • Broken at 24,000' AGL
Temperature
-16°C / 3°F
Dewpoint
-19°C / -2°F
Humidity
78%
Altimeter
29.78" Hg
Pressure
1009 hPa
Previous

2 hours ago

CYCB 261700Z 34013G19KT 3SM -SN DRSN FEW015 BKN022 BKN033 M17/M20 A2976 RMK SC2SC3SC2 SLP085
Observed
Mar-26 @ 17:00 UTC
Wind
  • 340° at 13 KTS
  • Gusting to 19 KTS
Visibility
3 SM
Flight Rules
MVFR
Conditions
Light Snow, Low drifting Snow
Cloud Levels
  • Few at 1,500' AGL
  • Broken at 2,200' AGL
  • Broken at 3,300' AGL
Temperature
-17°C / 1°F
Dewpoint
-20°C / -4°F
Humidity
78%
Altimeter
29.76" Hg
Pressure
1008.5 hPa
Previous

2 hours ago

CYCB 261639Z 34018KT 3SM -SN DRSN FEW015 BKN020 BKN150 M17/M21 A2977 RMK SC2SC3AC2 SLP086
Observed
Mar-26 @ 16:39 UTC
Wind
  • 340° at 18 KTS
Visibility
3 SM
Flight Rules
MVFR
Conditions
Light Snow, Low drifting Snow
Cloud Levels
  • Few at 1,500' AGL
  • Broken at 2,000' AGL
  • Broken at 15,000' AGL
Temperature
-17°C / 1°F
Dewpoint
-21°C / -6°F
Humidity
71%
Altimeter
29.77" Hg
Pressure
1008.6 hPa